Time;durP1;ratioP1;P1;durP2;ratioP2;P2;SDS_P1;SDS_P2;PMS_P1;PMS_P2;Temp;Humidity;BMP_temperature;BMP_pressure;BME280_temperature;BME280_humidity;BME280_pressure;Samples;Min_cycle;Max_cycle;Signal;HPM_P1;HPM_P2
2023/09/20 00:01:33;;;;;;;1.00;1.00;;;22.40;72.30;;;;;;5057051;28;20052;-79
2023/09/20 00:04:01;;;;;;;1.08;1.02;;;22.40;72.20;;;;;;5056516;28;20044;-78
2023/09/20 00:06:27;;;;;;;1.40;1.20;;;22.40;72.30;;;;;;5051963;28;20055;-78
2023/09/20 00:08:52;;;;;;;1.38;1.27;;;22.40;72.40;;;;;;5059351;28;20048;-78
2023/09/20 00:11:18;;;;;;;1.60;1.23;;;22.40;72.30;;;;;;5060045;28;20045;-77
2023/09/20 00:13:45;;;;;;;1.63;1.42;;;22.40;72.20;;;;;;5056074;28;20082;-79
2023/09/20 00:16:10;;;;;;;1.85;1.13;;;22.40;72.20;;;;;;5060012;28;20040;-78
2023/09/20 00:18:36;;;;;;;1.10;1.10;;;22.30;72.10;;;;;;5059546;28;20366;-78
2023/09/20 00:21:02;;;;;;;1.17;1.08;;;22.30;72.40;;;;;;5057681;28;20084;-79
2023/09/20 00:23:29;;;;;;;1.30;1.20;;;22.30;72.30;;;;;;5059164;28;20123;-78
2023/09/20 00:25:55;;;;;;;1.23;1.10;;;22.30;72.10;;;;;;5058028;28;20135;-78
2023/09/20 00:28:21;;;;;;;1.25;1.15;;;22.40;72.10;;;;;;5059138;28;20043;-78
2023/09/20 00:30:47;;;;;;;1.55;1.10;;;22.40;72.20;;;;;;5043292;28;20045;-78
2023/09/20 00:33:13;;;;;;;1.05;1.00;;;22.40;72.10;;;;;;5042659;28;20418;-78
2023/09/20 00:35:41;;;;;;;1.00;1.00;;;22.40;72.30;;;;;;5060796;28;20520;-78
2023/09/20 00:38:07;;;;;;;1.20;1.10;;;22.40;72.10;;;;;;5058612;28;20052;-78
2023/09/20 00:40:35;;;;;;;1.48;1.38;;;22.40;72.10;;;;;;5061045;28;20049;-78
2023/09/20 00:43:00;;;;;;;1.23;1.15;;;22.30;72.00;;;;;;5061859;28;20029;-78
2023/09/20 00:45:26;;;;;;;1.35;1.20;;;22.30;72.10;;;;;;5066373;28;20054;-78
2023/09/20 00:47:56;;;;;;;1.10;1.05;;;22.30;72.10;;;;;;5048555;28;20056;-78
2023/09/20 00:50:22;;;;;;;1.23;1.15;;;22.30;72.00;;;;;;5066551;28;20083;-78
2023/09/20 00:52:51;;;;;;;1.30;1.20;;;22.40;72.00;;;;;;5063570;28;20044;-78
2023/09/20 00:55:20;;;;;;;1.27;1.17;;;22.30;71.90;;;;;;5060319;28;20136;-78
2023/09/20 00:57:51;;;;;;;1.17;1.13;;;22.30;72.10;;;;;;5062794;28;20071;-78
2023/09/20 01:00:27;;;;;;;1.45;1.20;;;22.30;71.90;;;;;;5064743;28;20076;-78
2023/09/20 01:02:54;;;;;;;0.88;0.88;;;22.30;71.90;;;;;;5055671;28;20505;-77
2023/09/20 01:05:21;;;;;;;1.10;1.00;;;22.30;71.90;;;;;;5069263;28;20044;-78
2023/09/20 01:07:50;;;;;;;0.90;0.90;;;22.30;71.80;;;;;;5062474;28;20043;-78
2023/09/20 01:10:16;;;;;;;1.17;1.08;;;22.30;71.80;;;;;;5061447;28;20051;-78
2023/09/20 01:12:43;;;;;;;1.17;1.08;;;22.30;71.90;;;;;;5046972;28;20037;-78
2023/09/20 01:15:10;;;;;;;1.15;1.02;;;22.30;71.80;;;;;;5063788;28;20143;-78
2023/09/20 01:17:45;;;;;;;1.42;1.33;;;22.30;71.90;;;;;;5064294;28;20037;-78
2023/09/20 01:20:12;;;;;;;1.20;1.10;;;22.30;71.80;;;;;;5061325;28;20445;-78
2023/09/20 01:22:38;;;;;;;1.17;1.13;;;22.30;71.80;;;;;;5061287;28;20036;-78
2023/09/20 01:25:07;;;;;;;0.95;0.95;;;22.30;71.90;;;;;;5062661;28;20060;-78
2023/09/20 01:27:35;;;;;;;1.02;0.93;;;22.30;71.80;;;;;;5064472;28;20052;-78
2023/09/20 01:30:02;;;;;;;1.20;1.10;;;22.30;71.80;;;;;;5063955;28;20049;-78
2023/09/20 01:32:28;;;;;;;0.88;0.88;;;22.30;71.90;;;;;;5065970;28;20132;-78
2023/09/20 01:34:55;;;;;;;0.95;0.90;;;22.30;71.80;;;;;;5060327;28;20044;-78
2023/09/20 01:37:21;;;;;;;1.00;1.00;;;22.30;72.10;;;;;;5063738;28;20424;-78
2023/09/20 01:39:46;;;;;;;1.50;1.40;;;22.30;72.00;;;;;;5063029;28;20513;-78
2023/09/20 01:42:12;;;;;;;1.45;1.35;;;22.30;71.80;;;;;;5064239;28;20402;-78
2023/09/20 01:44:38;;;;;;;1.02;1.02;;;22.30;72.10;;;;;;5064153;28;20062;-78
2023/09/20 01:47:04;;;;;;;1.00;1.00;;;22.30;71.90;;;;;;5063708;28;20506;-78
2023/09/20 01:49:32;;;;;;;1.23;1.13;;;22.30;71.90;;;;;;5053665;28;20053;-78
2023/09/20 01:51:58;;;;;;;1.30;1.20;;;22.30;71.80;;;;;;5042354;28;20044;-78
2023/09/20 01:54:26;;;;;;;1.02;1.02;;;22.30;72.20;;;;;;5062499;28;20041;-78
2023/09/20 01:56:52;;;;;;;1.25;1.10;;;22.20;71.90;;;;;;5064381;28;20044;-78
2023/09/20 01:59:19;;;;;;;1.20;1.20;;;22.20;72.10;;;;;;5062727;28;20044;-78
2023/09/20 02:01:45;;;;;;;0.98;0.98;;;22.30;72.20;;;;;;5061518;28;20039;-78
2023/09/20 02:04:10;;;;;;;0.93;0.82;;;22.30;72.10;;;;;;5061914;28;20123;-77
2023/09/20 02:06:36;;;;;;;0.93;0.90;;;22.20;72.00;;;;;;5062625;28;20036;-78
2023/09/20 02:09:04;;;;;;;1.17;1.17;;;22.20;72.10;;;;;;5063944;28;20490;-78
2023/09/20 02:11:29;;;;;;;1.02;0.98;;;22.20;72.10;;;;;;5066363;28;20063;-78
2023/09/20 02:13:55;;;;;;;1.77;1.38;;;22.30;72.10;;;;;;5060399;28;20131;-78
2023/09/20 02:16:21;;;;;;;2.17;1.10;;;22.20;72.10;;;;;;5054459;28;20037;-78
2023/09/20 02:18:48;;;;;;;0.98;0.98;;;22.20;72.30;;;;;;5058357;28;20036;-78
2023/09/20 02:21:14;;;;;;;1.02;1.00;;;22.20;72.20;;;;;;5059006;28;20059;-78
2023/09/20 02:23:39;;;;;;;1.00;1.00;;;22.20;72.30;;;;;;5065962;28;20060;-78
2023/09/20 02:26:05;;;;;;;1.10;1.10;;;22.20;72.20;;;;;;5066470;28;20052;-79
2023/09/20 02:28:34;;;;;;;0.95;0.95;;;22.20;72.20;;;;;;5061990;28;20078;-78
2023/09/20 02:31:00;;;;;;;1.50;1.40;;;22.20;72.30;;;;;;5061924;28;20051;-78
2023/09/20 02:33:26;;;;;;;1.00;1.00;;;22.20;72.20;;;;;;5057533;28;20028;-78
2023/09/20 02:35:52;;;;;;;1.10;1.00;;;22.20;72.20;;;;;;5061201;28;20064;-78
2023/09/20 02:38:17;;;;;;;1.30;1.23;;;22.20;72.40;;;;;;5055094;28;20080;-78
2023/09/20 02:40:46;;;;;;;1.00;1.00;;;22.20;72.30;;;;;;5064893;28;20575;-77
2023/09/20 02:43:13;;;;;;;0.90;0.90;;;22.20;72.40;;;;;;5062109;28;20045;-78
2023/09/20 02:45:45;;;;;;;1.10;1.00;;;22.20;72.50;;;;;;5062946;28;20056;-78
2023/09/20 02:48:10;;;;;;;1.13;1.10;;;22.20;72.40;;;;;;5061909;28;20043;-78
2023/09/20 02:50:36;;;;;;;1.60;1.50;;;22.20;72.50;;;;;;5064406;28;20045;-78
2023/09/20 02:53:02;;;;;;;1.05;1.05;;;22.20;72.40;;;;;;5065775;28;20037;-78
2023/09/20 02:55:27;;;;;;;1.35;1.15;;;22.20;72.70;;;;;;5064777;28;20128;-78
2023/09/20 02:57:54;;;;;;;1.50;1.40;;;22.20;72.70;;;;;;5064676;28;20468;-79
2023/09/20 03:00:28;;;;;;;1.42;1.33;;;22.20;72.60;;;;;;5058855;28;20053;-78
2023/09/20 03:02:55;;;;;;;1.33;1.23;;;22.20;72.50;;;;;;5061874;28;20057;-78
2023/09/20 03:05:25;;;;;;;0.95;0.95;;;22.20;72.60;;;;;;5062078;28;20456;-78
2023/09/20 03:07:51;;;;;;;1.38;1.27;;;22.20;72.70;;;;;;5060436;28;20032;-78
2023/09/20 03:10:21;;;;;;;1.17;1.08;;;22.20;72.70;;;;;;5061510;28;20429;-78
2023/09/20 03:12:47;;;;;;;1.30;1.20;;;22.20;72.80;;;;;;5063040;28;20029;-78
2023/09/20 03:15:17;;;;;;;1.10;1.10;;;22.20;72.70;;;;;;5064541;28;20036;-78
2023/09/20 03:17:47;;;;;;;1.00;1.00;;;22.20;72.80;;;;;;5064457;28;20052;-78
2023/09/20 03:20:32;;;;;;;1.00;1.00;;;22.20;72.60;;;;;;5064529;28;20053;-78
2023/09/20 03:23:06;;;;;;;0.90;0.90;;;22.20;72.60;;;;;;5056802;28;20036;-78
2023/09/20 03:25:35;;;;;;;1.05;1.05;;;22.20;72.60;;;;;;5057989;28;20406;-78
2023/09/20 03:28:10;;;;;;;0.95;0.95;;;22.10;72.60;;;;;;5058077;28;20036;-77
2023/09/20 03:30:38;;;;;;;1.90;1.00;;;22.10;72.60;;;;;;5062589;28;20053;-78
2023/09/20 03:33:05;;;;;;;1.35;1.25;;;22.20;72.70;;;;;;5060666;28;20055;-78
2023/09/20 03:35:30;;;;;;;1.02;0.93;;;22.10;72.60;;;;;;5046817;28;20040;-78
2023/09/20 03:37:56;;;;;;;1.55;1.20;;;22.20;72.60;;;;;;5063873;28;20457;-78
2023/09/20 03:40:22;;;;;;;0.90;0.90;;;22.10;72.80;;;;;;5062477;28;20044;-78
2023/09/20 03:42:48;;;;;;;1.17;1.08;;;22.20;72.60;;;;;;5061093;28;20072;-78
2023/09/20 03:45:15;;;;;;;1.35;1.13;;;22.10;72.60;;;;;;5062483;28;20028;-78
2023/09/20 03:47:42;;;;;;;1.00;0.75;;;22.20;72.60;;;;;;5062861;28;20049;-78
2023/09/20 03:50:09;;;;;;;1.10;1.10;;;22.10;72.40;;;;;;5063519;28;20139;-78
2023/09/20 03:52:38;;;;;;;1.15;1.10;;;22.20;72.60;;;;;;5061017;28;20032;-78
2023/09/20 03:55:05;;;;;;;1.33;1.27;;;22.10;72.50;;;;;;5059901;28;20384;-78
2023/09/20 03:57:30;;;;;;;1.10;1.00;;;22.10;72.40;;;;;;5057877;28;20116;-78
2023/09/20 03:59:59;;;;;;;1.00;1.00;;;22.20;72.80;;;;;;5059365;28;20210;-78
2023/09/20 04:02:25;;;;;;;1.10;0.93;;;22.20;72.70;;;;;;5063603;28;20064;-78
2023/09/20 04:04:51;;;;;;;1.30;1.20;;;22.10;72.60;;;;;;5059920;28;20090;-78
2023/09/20 04:07:18;;;;;;;1.10;1.10;;;22.10;72.70;;;;;;5030525;28;20033;-78
2023/09/20 04:09:47;;;;;;;1.10;1.00;;;22.10;72.50;;;;;;5045842;28;20601;-78
2023/09/20 04:12:12;;;;;;;1.10;1.10;;;22.10;72.50;;;;;;5057836;28;20037;-77
2023/09/20 04:14:38;;;;;;;0.82;0.82;;;22.20;72.50;;;;;;5064186;28;20032;-78
2023/09/20 04:17:04;;;;;;;1.00;1.00;;;22.10;72.40;;;;;;5060359;28;20460;-79
2023/09/20 04:19:31;;;;;;;0.85;0.85;;;22.20;72.50;;;;;;5043064;28;20041;-78
2023/09/20 04:21:56;;;;;;;1.13;1.02;;;22.20;72.40;;;;;;5062048;28;20797;-78
2023/09/20 04:24:22;;;;;;;0.90;0.90;;;22.10;72.40;;;;;;5060227;28;20044;-78
2023/09/20 04:26:48;;;;;;;1.00;1.00;;;22.20;72.50;;;;;;5063432;28;20108;-78
2023/09/20 04:29:14;;;;;;;1.05;1.05;;;22.10;72.50;;;;;;5062060;28;20040;-79
2023/09/20 04:31:40;;;;;;;1.30;1.20;;;22.20;72.70;;;;;;5058985;28;20040;-78
2023/09/20 04:34:06;;;;;;;0.88;0.88;;;22.10;72.40;;;;;;5063441;28;20402;-78
2023/09/20 04:36:31;;;;;;;1.55;1.42;;;22.10;73.20;;;;;;5059081;28;20036;-78
2023/09/20 04:38:57;;;;;;;1.00;0.93;;;22.10;72.50;;;;;;5049250;28;20571;-78
2023/09/20 04:41:22;;;;;;;1.02;1.00;;;22.10;72.50;;;;;;5061274;28;20044;-78
2023/09/20 04:43:48;;;;;;;1.00;1.00;;;22.20;72.60;;;;;;5088920;28;20041;-79
2023/09/20 04:46:14;;;;;;;1.20;1.10;;;22.10;72.50;;;;;;5058085;28;20118;-78
2023/09/20 04:48:40;;;;;;;1.20;1.20;;;22.10;72.50;;;;;;5058458;28;20048;-79
2023/09/20 04:51:06;;;;;;;1.05;1.05;;;22.10;72.60;;;;;;5061974;28;20044;-78
2023/09/20 04:53:35;;;;;;;1.10;1.05;;;22.10;72.40;;;;;;5061350;28;20071;-78
2023/09/20 04:56:01;;;;;;;1.20;1.10;;;22.10;72.50;;;;;;5059861;28;20120;-78
2023/09/20 04:58:26;;;;;;;1.10;1.00;;;22.10;72.30;;;;;;5058513;28;20119;-78
2023/09/20 05:00:53;;;;;;;0.80;0.80;;;22.10;72.30;;;;;;5058067;28;20542;-77
2023/09/20 05:03:19;;;;;;;1.10;1.10;;;22.10;72.50;;;;;;5061505;28;20052;-78
2023/09/20 05:05:47;;;;;;;1.10;1.10;;;22.10;72.40;;;;;;5059450;28;20063;-78
2023/09/20 05:08:15;;;;;;;0.88;0.88;;;22.20;72.50;;;;;;5063271;28;20044;-78
2023/09/20 05:10:43;;;;;;;1.50;1.40;;;22.20;72.40;;;;;;5057165;28;20106;-79
2023/09/20 05:13:09;;;;;;;0.80;0.80;;;22.10;72.60;;;;;;5061925;28;20388;-79
2023/09/20 05:15:36;;;;;;;0.95;0.90;;;22.10;72.90;;;;;;5060265;28;20044;-79
2023/09/20 05:18:04;;;;;;;1.08;1.08;;;22.20;72.70;;;;;;5059856;28;20071;-77
2023/09/20 05:20:31;;;;;;;1.75;1.02;;;22.10;72.50;;;;;;5059074;28;20052;-76
2023/09/20 05:22:58;;;;;;;1.20;1.10;;;22.10;72.40;;;;;;5054644;28;20039;-75
2023/09/20 05:25:23;;;;;;;1.38;1.20;;;22.20;72.40;;;;;;5054028;28;20695;-77
2023/09/20 05:27:49;;;;;;;1.60;1.50;;;22.10;72.50;;;;;;5057792;28;20067;-76
2023/09/20 05:30:16;;;;;;;1.70;1.60;;;21.90;73.10;;;;;;5065154;28;20052;-75
2023/09/20 05:32:43;;;;;;;3.42;1.52;;;21.90;73.30;;;;;;5063799;28;20044;-76
2023/09/20 05:35:11;;;;;;;2.58;1.90;;;21.80;73.60;;;;;;5061974;28;20110;-76
2023/09/20 05:37:38;;;;;;;2.72;1.77;;;21.70;74.50;;;;;;5059699;28;20052;-76
2023/09/20 05:40:07;;;;;;;1.80;1.60;;;21.70;73.80;;;;;;5062531;28;20086;-76
2023/09/20 05:42:32;;;;;;;1.70;1.60;;;21.60;74.00;;;;;;5061595;28;20040;-73
2023/09/20 05:44:58;;;;;;;2.20;1.75;;;21.50;74.20;;;;;;5058187;28;20052;-77
2023/09/20 05:47:24;;;;;;;2.53;1.88;;;21.60;74.40;;;;;;5058390;28;20053;-76
2023/09/20 05:49:49;;;;;;;2.33;1.70;;;21.60;74.10;;;;;;5053987;28;20035;-78
2023/09/20 05:52:15;;;;;;;3.25;1.63;;;21.70;74.20;;;;;;5065847;28;20041;-79
2023/09/20 05:54:44;;;;;;;1.80;1.58;;;21.70;74.30;;;;;;5057346;28;20060;-77
2023/09/20 05:57:09;;;;;;;2.28;1.67;;;21.60;74.60;;;;;;5059402;28;20052;-77
2023/09/20 05:59:35;;;;;;;3.40;1.90;;;21.60;74.80;;;;;;5057038;28;20041;-78
2023/09/20 06:02:00;;;;;;;5.10;1.70;;;21.60;74.80;;;;;;5066869;28;20040;-80
2023/09/20 06:04:26;;;;;;;4.72;1.65;;;21.70;74.70;;;;;;5063536;28;20032;-79
2023/09/20 06:06:54;;;;;;;2.25;1.90;;;21.60;74.80;;;;;;5063361;28;20060;-79
2023/09/20 06:09:19;;;;;;;3.15;1.80;;;21.70;74.90;;;;;;5064077;28;20630;-79
2023/09/20 06:11:45;;;;;;;1.70;1.50;;;21.60;75.00;;;;;;5055181;28;20049;-80
2023/09/20 06:14:10;;;;;;;2.63;1.83;;;21.60;75.20;;;;;;5060493;28;20036;-80
2023/09/20 06:16:36;;;;;;;2.47;1.77;;;21.60;75.30;;;;;;5049691;28;20354;-79
2023/09/20 06:19:02;;;;;;;3.20;1.92;;;21.60;75.20;;;;;;5046053;28;20044;-78
2023/09/20 06:21:28;;;;;;;3.60;1.83;;;21.70;75.30;;;;;;4354575;28;10001292;-80
2023/09/20 06:23:54;;;;;;;3.38;1.90;;;21.70;75.10;;;;;;5061638;28;20157;-78
2023/09/20 06:26:19;;;;;;;1.98;1.48;;;21.70;75.00;;;;;;5062613;28;20044;-78
2023/09/20 06:28:45;;;;;;;3.25;1.55;;;21.70;75.30;;;;;;5051588;28;20063;-78
2023/09/20 06:31:16;;;;;;;3.65;1.42;;;21.70;75.60;;;;;;5055196;28;20435;-78
2023/09/20 06:33:44;;;;;;;2.10;1.48;;;21.70;74.90;;;;;;5052209;28;20425;-78
2023/09/20 06:36:20;;;;;;;2.03;1.48;;;21.70;75.40;;;;;;5053885;28;20049;-78
2023/09/20 06:38:49;;;;;;;2.22;2.03;;;21.70;75.30;;;;;;5056744;28;20045;-78
2023/09/20 06:41:15;;;;;;;2.65;1.70;;;21.70;75.50;;;;;;5054330;28;20037;-77
2023/09/20 06:43:42;;;;;;;3.55;1.83;;;21.70;75.30;;;;;;5048534;28;20611;-77
2023/09/20 06:46:07;;;;;;;2.47;1.50;;;21.70;76.00;;;;;;5055350;28;20506;-78
2023/09/20 06:48:33;;;;;;;2.55;1.50;;;21.70;75.80;;;;;;5060093;28;20029;-78
2023/09/20 06:51:00;;;;;;;2.63;1.88;;;21.70;76.50;;;;;;5062850;28;20519;-78
2023/09/20 06:53:25;;;;;;;3.63;1.58;;;21.80;76.60;;;;;;5077728;28;20548;-78
2023/09/20 06:55:51;;;;;;;3.13;1.60;;;21.80;76.50;;;;;;5064564;28;20037;-78
2023/09/20 06:58:17;;;;;;;4.53;1.90;;;21.90;76.30;;;;;;5063844;28;20037;-78
2023/09/20 07:00:42;;;;;;;2.38;1.83;;;21.90;76.20;;;;;;5063421;28;20124;-78
2023/09/20 07:03:10;;;;;;;2.08;1.80;;;22.00;76.10;;;;;;5062207;28;20409;-78
2023/09/20 07:05:36;;;;;;;3.20;2.10;;;22.00;75.90;;;;;;5063290;28;20032;-78
2023/09/20 07:08:01;;;;;;;2.25;1.92;;;22.00;75.90;;;;;;5060930;28;20076;-78
2023/09/20 07:10:29;;;;;;;2.35;1.90;;;22.00;75.70;;;;;;5061598;28;20067;-78
2023/09/20 07:12:54;;;;;;;6.38;1.83;;;22.00;75.80;;;;;;5060896;28;20429;-79
2023/09/20 07:15:20;;;;;;;1.70;1.60;;;22.00;75.70;;;;;;5063542;28;20549;-78
2023/09/20 07:17:46;;;;;;;1.63;1.50;;;22.00;75.50;;;;;;5062227;28;20456;-78
2023/09/20 07:20:18;;;;;;;2.20;1.77;;;22.00;75.90;;;;;;5063766;28;20050;-78
2023/09/20 07:22:49;;;;;;;1.70;1.60;;;22.00;75.80;;;;;;5059486;28;20044;-79
2023/09/20 07:25:21;;;;;;;1.90;1.80;;;22.00;75.60;;;;;;5062407;28;20123;-78
2023/09/20 07:27:47;;;;;;;2.85;1.58;;;22.00;75.80;;;;;;5060266;28;20040;-78
2023/09/20 07:30:17;;;;;;;2.88;1.77;;;22.00;75.70;;;;;;5061407;28;20067;-78
2023/09/20 07:32:43;;;;;;;2.15;1.60;;;22.00;75.60;;;;;;5062137;28;20040;-78
2023/09/20 07:35:19;;;;;;;1.67;1.58;;;22.00;75.50;;;;;;5064372;28;20079;-78
2023/09/20 07:37:55;;;;;;;2.17;1.58;;;22.00;75.50;;;;;;5061510;28;20044;-78
2023/09/20 07:40:21;;;;;;;2.42;1.63;;;22.10;75.40;;;;;;5062144;28;20406;-78
2023/09/20 07:42:49;;;;;;;1.92;1.70;;;22.10;75.60;;;;;;5059073;28;20044;-78
2023/09/20 07:45:15;;;;;;;1.55;1.40;;;22.10;75.60;;;;;;5061939;28;20051;-78
2023/09/20 07:47:43;;;;;;;2.45;1.48;;;22.10;75.50;;;;;;5062835;28;20501;-78
2023/09/20 07:50:11;;;;;;;1.50;1.40;;;22.10;75.50;;;;;;5063396;28;20040;-78
2023/09/20 07:52:40;;;;;;;2.70;1.50;;;22.10;75.50;;;;;;5060701;28;20036;-78
2023/09/20 07:55:08;;;;;;;1.85;1.60;;;22.10;75.50;;;;;;5058580;28;20431;-78
2023/09/20 07:57:33;;;;;;;1.70;1.60;;;22.10;75.60;;;;;;5061065;28;20028;-78
2023/09/20 07:59:59;;;;;;;1.98;1.63;;;22.10;75.50;;;;;;5051922;28;20049;-78
2023/09/20 08:02:25;;;;;;;1.67;1.58;;;22.10;75.50;;;;;;5066395;28;20409;-78
2023/09/20 08:04:51;;;;;;;1.58;1.33;;;22.10;76.10;;;;;;5058293;28;20114;-79
2023/09/20 08:07:17;;;;;;;1.60;1.50;;;22.10;75.10;;;;;;5062441;28;20390;-79
2023/09/20 08:09:43;;;;;;;1.33;1.23;;;22.10;75.10;;;;;;5059847;28;20044;-78
2023/09/20 08:12:11;;;;;;;1.30;1.20;;;22.10;75.00;;;;;;5062271;28;20119;-79
2023/09/20 08:14:37;;;;;;;2.05;1.13;;;22.20;75.00;;;;;;5062829;28;20033;-79
2023/09/20 08:19:47;;;;;;;1.15;0.90;;;22.20;75.00;;;;;;5060960;28;20536;-78
2023/09/20 08:22:15;;;;;;;1.70;1.50;;;22.20;75.60;;;;;;5060364;28;20127;-78
2023/09/20 09:00:31;;;;;;;;;;;22.20;75.20;;;;;;5046890;28;20052;-78
2023/09/20 09:02:58;;;;;;;1.20;1.10;;;22.20;74.30;;;;;;5061982;28;19939;-78
2023/09/20 09:05:27;;;;;;;1.30;1.15;;;22.20;74.20;;;;;;5068781;28;20127;-78
2023/09/20 09:07:53;;;;;;;1.40;1.30;;;22.20;74.30;;;;;;5061708;28;20182;-78
2023/09/20 09:10:19;;;;;;;1.30;1.20;;;22.30;74.20;;;;;;5063956;28;20128;-78
2023/09/20 09:12:45;;;;;;;1.38;1.05;;;22.20;74.10;;;;;;5061179;28;20449;-79
2023/09/20 09:15:11;;;;;;;1.10;1.08;;;22.20;74.20;;;;;;5055483;28;20122;-78
2023/09/20 09:17:40;;;;;;;1.20;1.10;;;22.20;75.00;;;;;;5065360;28;20037;-78
2023/09/20 09:20:11;;;;;;;1.30;1.20;;;22.30;74.20;;;;;;5065930;28;20063;-78
2023/09/20 09:22:40;;;;;;;1.35;1.25;;;22.20;74.10;;;;;;5059383;28;20050;-78
2023/09/20 09:25:11;;;;;;;1.20;1.10;;;22.20;74.00;;;;;;5057686;28;20123;-78
2023/09/20 09:27:37;;;;;;;2.13;1.50;;;22.30;74.00;;;;;;5065189;28;20036;-78
2023/09/20 09:30:03;;;;;;;1.38;1.27;;;22.30;74.00;;;;;;5064454;28;20406;-78
2023/09/20 09:32:36;;;;;;;1.20;1.10;;;22.30;74.00;;;;;;5067620;28;20036;-78
2023/09/20 09:35:06;;;;;;;1.43;1.03;;;22.30;73.90;;;;;;5065965;28;20045;-78
2023/09/20 09:37:32;;;;;;;1.08;0.90;;;22.30;73.80;;;;;;5065076;28;20511;-78
2023/09/20 09:40:09;;;;;;;1.13;1.02;;;22.30;73.90;;;;;;5062898;28;20101;-78
2023/09/20 09:42:34;;;;;;;1.10;1.00;;;22.30;73.90;;;;;;5058067;28;20033;-78
2023/09/20 09:45:01;;;;;;;1.50;1.40;;;22.30;73.80;;;;;;5063531;28;20035;-78
2023/09/20 09:47:29;;;;;;;1.00;0.93;;;22.30;73.70;;;;;;5067290;28;20036;-78
2023/09/20 09:49:55;;;;;;;1.20;1.10;;;22.30;73.60;;;;;;5063264;28;20045;-78
2023/09/20 09:52:24;;;;;;;1.55;1.45;;;22.30;73.60;;;;;;5061391;28;20041;-78
2023/09/20 09:54:53;;;;;;;1.25;1.10;;;22.40;73.50;;;;;;5061573;28;20040;-78
2023/09/20 09:57:18;;;;;;;1.30;1.20;;;22.30;73.40;;;;;;5063038;28;20124;-78
2023/09/20 09:59:47;;;;;;;1.10;1.10;;;22.40;73.40;;;;;;5065185;28;20047;-78
2023/09/20 10:02:17;;;;;;;1.02;1.02;;;22.40;73.40;;;;;;5064131;28;20120;-78
2023/09/20 10:04:56;;;;;;;0.85;0.85;;;22.40;73.20;;;;;;5062775;28;20059;-78
2023/09/20 10:07:24;;;;;;;1.38;1.00;;;22.40;73.20;;;;;;5065705;28;20473;-78
2023/09/20 10:09:50;;;;;;;1.00;1.00;;;22.40;73.10;;;;;;5065256;28;20533;-78
2023/09/20 10:12:17;;;;;;;1.10;1.00;;;22.40;73.00;;;;;;5066416;28;20052;-78
2023/09/20 10:14:43;;;;;;;0.75;0.75;;;22.40;73.10;;;;;;5064479;28;20041;-78
2023/09/20 10:17:09;;;;;;;1.35;1.25;;;22.40;73.00;;;;;;5062794;28;20036;-79
2023/09/20 10:19:36;;;;;;;1.00;1.00;;;22.40;73.00;;;;;;5062132;28;20056;-78
2023/09/20 10:22:09;;;;;;;1.02;1.02;;;22.40;72.90;;;;;;5061233;28;20044;-78
2023/09/20 10:24:50;;;;;;;0.83;0.83;;;22.40;73.00;;;;;;5091825;27;20128;-78
2023/09/20 10:27:17;;;;;;;0.75;0.75;;;22.40;73.10;;;;;;5060064;28;20128;-78
2023/09/20 10:30:09;;;;;;;0.93;0.93;;;22.40;73.10;;;;;;5064067;28;20421;-78
2023/09/20 10:32:56;;;;;;;0.82;0.82;;;22.40;73.10;;;;;;5085204;28;20119;-78
2023/09/20 10:35:26;;;;;;;0.80;0.70;;;22.40;73.00;;;;;;5063383;28;20272;-78
2023/09/20 10:38:08;;;;;;;0.60;0.60;;;22.40;73.00;;;;;;5062260;28;20036;-78
2023/09/20 10:40:46;;;;;;;0.70;0.70;;;22.40;73.00;;;;;;5061587;28;20109;-78
2023/09/20 10:43:13;;;;;;;0.88;0.75;;;22.40;73.20;;;;;;5060062;28;20115;-78
2023/09/20 10:45:39;;;;;;;0.95;0.80;;;22.40;73.00;;;;;;5061946;28;20098;-78
2023/09/20 10:48:15;;;;;;;0.75;0.68;;;22.40;72.90;;;;;;5088651;28;20545;-78
2023/09/20 10:50:54;;;;;;;0.98;0.95;;;22.40;73.00;;;;;;5060580;28;20079;-78
2023/09/20 10:53:22;;;;;;;0.90;0.90;;;22.40;72.90;;;;;;5061070;28;20044;-78
2023/09/20 10:55:49;;;;;;;0.98;0.90;;;22.50;72.90;;;;;;5061851;28;20048;-78
2023/09/20 10:58:18;;;;;;;0.80;0.80;;;22.50;73.00;;;;;;5059389;28;20041;-78
2023/09/20 11:00:44;;;;;;;0.90;0.90;;;22.50;73.00;;;;;;5062525;28;20051;-77
2023/09/20 11:03:11;;;;;;;0.80;0.80;;;22.40;72.90;;;;;;5059104;28;20048;-77
2023/09/20 11:05:36;;;;;;;1.67;0.98;;;22.40;72.90;;;;;;5062776;28;20040;-77
2023/09/20 11:08:11;;;;;;;1.15;1.02;;;22.40;73.00;;;;;;5062975;28;20037;-77
2023/09/20 11:10:39;;;;;;;0.80;0.80;;;22.50;73.00;;;;;;5063249;28;20445;-77
2023/09/20 11:13:08;;;;;;;0.90;0.90;;;22.40;72.80;;;;;;5042572;28;20050;-78
2023/09/20 11:15:41;;;;;;;1.52;0.80;;;22.50;72.80;;;;;;5055659;28;20040;-78
2023/09/20 11:18:07;;;;;;;1.33;1.23;;;22.50;72.70;;;;;;5059891;28;20055;-77
2023/09/20 11:20:34;;;;;;;0.88;0.88;;;22.50;72.60;;;;;;5063971;28;20090;-77
2023/09/20 11:23:00;;;;;;;1.10;1.10;;;22.50;72.60;;;;;;5062579;28;20068;-78
2023/09/20 11:25:28;;;;;;;1.20;1.00;;;22.50;73.00;;;;;;5054402;28;20045;-77
2023/09/20 11:27:55;;;;;;;3.00;1.70;;;22.50;73.60;;;;;;5084895;28;20116;-77
2023/09/20 11:30:20;;;;;;;7.65;3.20;;;22.60;74.30;;;;;;5057549;28;20040;-78
2023/09/20 11:32:46;;;;;;;14.38;9.20;;;22.60;75.60;;;;;;5060319;28;20108;-78
2023/09/20 11:35:27;;;;;;;11.07;8.27;;;22.60;75.40;;;;;;5087069;28;20044;-76
2023/09/20 11:37:53;;;;;;;6.35;5.28;;;22.70;75.10;;;;;;5046079;28;20067;-76
2023/09/20 11:40:18;;;;;;;4.95;3.70;;;22.70;74.90;;;;;;5058954;28;20506;-76
2023/09/20 11:42:45;;;;;;;2.83;2.63;;;22.70;75.20;;;;;;5058322;28;20442;-77
2023/09/20 11:45:10;;;;;;;2.75;1.95;;;22.70;74.20;;;;;;5064221;28;20050;-77
2023/09/20 11:47:42;;;;;;;2.50;2.17;;;22.70;73.50;;;;;;5065619;28;20040;-76
2023/09/20 11:50:12;;;;;;;4.20;1.92;;;22.70;73.70;;;;;;5063412;28;20052;-78
2023/09/20 11:52:48;;;;;;;3.38;1.85;;;22.70;73.20;;;;;;5062605;28;20409;-78
2023/09/20 11:55:14;;;;;;;2.42;1.60;;;22.80;73.40;;;;;;5059386;28;20072;-79
2023/09/20 11:57:46;;;;;;;3.95;1.85;;;22.80;72.30;;;;;;5060102;28;20064;-79
2023/09/20 12:00:18;;;;;;;1.98;1.38;;;22.70;72.10;;;;;;5062201;28;20076;-80
2023/09/20 12:02:44;;;;;;;2.78;1.65;;;22.70;71.70;;;;;;5060355;28;20049;-81
2023/09/20 12:05:11;;;;;;;3.08;1.38;;;22.70;71.60;;;;;;5049594;28;20580;-80
2023/09/20 12:07:36;;;;;;;1.70;1.60;;;22.70;71.40;;;;;;5058167;28;20518;-80
2023/09/20 12:10:02;;;;;;;2.03;1.55;;;22.70;71.70;;;;;;5056356;28;20068;-81
2023/09/20 12:12:31;;;;;;;2.28;1.40;;;22.70;71.50;;;;;;5058413;28;20036;-81
2023/09/20 12:14:56;;;;;;;1.60;1.23;;;22.70;72.10;;;;;;5056924;28;20585;-80
2023/09/20 12:17:22;;;;;;;1.88;1.27;;;22.70;71.00;;;;;;5047481;28;20128;-79
2023/09/20 12:19:47;;;;;;;1.45;1.33;;;22.70;70.60;;;;;;5049502;28;20036;-79
2023/09/20 12:22:14;;;;;;;2.25;1.27;;;22.70;70.20;;;;;;5084165;28;20402;-82
2023/09/20 12:24:39;;;;;;;1.40;1.15;;;22.70;71.40;;;;;;5055930;28;20074;-81
2023/09/20 12:27:05;;;;;;;1.98;1.70;;;22.60;70.90;;;;;;5061028;28;20406;-81
2023/09/20 12:29:31;;;;;;;2.13;1.20;;;22.70;70.00;;;;;;5061560;28;20049;-80
2023/09/20 12:31:56;;;;;;;1.90;1.35;;;22.70;70.20;;;;;;5057997;28;20035;-80
2023/09/20 12:34:22;;;;;;;2.80;1.15;;;22.70;70.60;;;;;;5056908;28;20055;-81
2023/09/20 12:36:48;;;;;;;1.60;1.50;;;22.70;70.30;;;;;;5053883;28;20029;-79
2023/09/20 12:39:16;;;;;;;2.63;1.23;;;22.70;70.40;;;;;;5064150;28;20076;-80
2023/09/20 12:41:42;;;;;;;3.65;1.65;;;22.70;70.60;;;;;;5066795;28;20480;-82
2023/09/20 12:44:08;;;;;;;1.88;1.35;;;22.70;71.00;;;;;;5065310;28;20150;-82
2023/09/20 12:46:36;;;;;;;1.58;1.00;;;22.70;70.70;;;;;;5067234;28;20549;-82
2023/09/20 12:49:02;;;;;;;1.90;1.40;;;22.70;70.70;;;;;;5060815;28;20040;-81
2023/09/20 12:51:28;;;;;;;1.23;1.13;;;22.70;70.50;;;;;;5064110;28;20055;-80
2023/09/20 12:53:54;;;;;;;2.08;1.20;;;22.70;71.20;;;;;;5062469;28;20734;-80
2023/09/20 12:56:20;;;;;;;1.83;1.20;;;22.70;71.20;;;;;;5067676;28;20106;-81
2023/09/20 12:58:46;;;;;;;1.30;1.02;;;22.70;70.90;;;;;;5060952;28;20040;-82
2023/09/20 13:01:12;;;;;;;1.27;1.17;;;22.70;70.60;;;;;;5061777;28;20206;-80
2023/09/20 13:03:40;;;;;;;2.25;1.20;;;22.70;70.80;;;;;;5046807;28;20581;-82
2023/09/20 13:06:07;;;;;;;2.55;1.00;;;22.70;70.60;;;;;;5062281;28;20055;-79
2023/09/20 13:08:32;;;;;;;1.67;1.40;;;22.70;70.90;;;;;;5059000;28;20205;-79
2023/09/20 13:10:58;;;;;;;1.42;1.00;;;22.70;70.20;;;;;;5041407;28;20499;-78
2023/09/20 13:13:23;;;;;;;2.10;1.20;;;22.70;69.40;;;;;;5061743;28;20047;-79
2023/09/20 13:15:50;;;;;;;3.65;1.30;;;22.70;69.30;;;;;;5057012;28;20743;-77
2023/09/20 13:18:16;;;;;;;2.15;1.30;;;22.80;70.00;;;;;;5054166;28;20550;-79
2023/09/20 13:20:42;;;;;;;2.05;1.10;;;22.70;68.80;;;;;;5058181;28;20194;-78
2023/09/20 13:23:10;;;;;;;1.13;0.90;;;22.80;69.30;;;;;;5061983;28;20804;-78
2023/09/20 13:25:41;;;;;;;1.40;1.02;;;22.80;68.50;;;;;;5056783;28;20051;-80
2023/09/20 13:28:12;;;;;;;1.60;1.17;;;22.80;68.40;;;;;;5046755;28;20040;-79